East Berlin, Pennsylvania
Current Conditions -  °F | °C
As of 4:27 AM on Monday 24 Nov 2014 (Local Time) from KTHV Reporting Station
Light Rain Light Rain  
Wind Chill: 62°   Ceiling: 1500
Heat Index: 62°   Visibility: 10mi
Dew Point: 59°   Wind: 13mph
Humidity: 90%   Direction: 180°S
Pressure: 29.6"   Gusts: 24mph
Location:  39.94°N, 76.98°W
Report Text: KTHV 240927Z AUTO 18011G21KT 10SM -RA OVC015 17/15 A2960 RMK AO2 RAE06B23 P0000 T01670150
Loading
Personal Weather Stations






























Interactive Weather Map New forecast layout! Learn more

10-Day Weather Forecast

Advertisements
Track Severe Weather on mobile